sensor_id;sensor_type;location;lat;lon;timestamp;temperature;humidity
1075;DHT22;526;51.392;12.448;2023-03-15T00:01:41;2.70;97.30
1075;DHT22;526;51.392;12.448;2023-03-15T00:04:11;2.70;97.30
1075;DHT22;526;51.392;12.448;2023-03-15T00:06:36;2.60;97.30
1075;DHT22;526;51.392;12.448;2023-03-15T00:09:02;2.60;97.30
1075;DHT22;526;51.392;12.448;2023-03-15T00:11:29;2.60;97.30
1075;DHT22;526;51.392;12.448;2023-03-15T00:13:58;2.60;97.30
1075;DHT22;526;51.392;12.448;2023-03-15T00:16:24;2.60;97.30
1075;DHT22;526;51.392;12.448;2023-03-15T00:18:52;2.60;97.30
1075;DHT22;526;51.392;12.448;2023-03-15T00:21:17;2.60;97.30
1075;DHT22;526;51.392;12.448;2023-03-15T00:23:43;2.60;97.30
1075;DHT22;526;51.392;12.448;2023-03-15T00:26:09;2.60;97.30
1075;DHT22;526;51.392;12.448;2023-03-15T00:28:34;2.60;97.30
1075;DHT22;526;51.392;12.448;2023-03-15T00:31:21;2.60;97.30
1075;DHT22;526;51.392;12.448;2023-03-15T00:33:47;2.60;97.30
1075;DHT22;526;51.392;12.448;2023-03-15T00:36:13;2.60;97.30
1075;DHT22;526;51.392;12.448;2023-03-15T00:38:40;2.60;97.30
1075;DHT22;526;51.392;12.448;2023-03-15T00:41:12;2.60;97.30
1075;DHT22;526;51.392;12.448;2023-03-15T00:43:38;2.60;97.30
1075;DHT22;526;51.392;12.448;2023-03-15T00:46:04;2.50;97.30
1075;DHT22;526;51.392;12.448;2023-03-15T00:48:30;2.50;97.30
1075;DHT22;526;51.392;12.448;2023-03-15T00:51:05;2.50;97.30
1075;DHT22;526;51.392;12.448;2023-03-15T00:53:31;2.50;97.30
1075;DHT22;526;51.392;12.448;2023-03-15T00:55:57;2.50;97.30
1075;DHT22;526;51.392;12.448;2023-03-15T00:58:23;2.50;97.30
1075;DHT22;526;51.392;12.448;2023-03-15T01:00:48;2.40;97.30
1075;DHT22;526;51.392;12.448;2023-03-15T01:03:14;2.40;97.30
1075;DHT22;526;51.392;12.448;2023-03-15T01:05:39;2.40;97.30
1075;DHT22;526;51.392;12.448;2023-03-15T01:08:05;2.40;97.30
1075;DHT22;526;51.392;12.448;2023-03-15T01:10:34;2.40;97.30
1075;DHT22;526;51.392;12.448;2023-03-15T01:12:59;2.40;97.30
1075;DHT22;526;51.392;12.448;2023-03-15T01:15:25;2.40;97.30
1075;DHT22;526;51.392;12.448;2023-03-15T01:17:50;2.40;97.30
1075;DHT22;526;51.392;12.448;2023-03-15T01:20:16;2.40;97.30
1075;DHT22;526;51.392;12.448;2023-03-15T01:22:41;2.40;97.30
1075;DHT22;526;51.392;12.448;2023-03-15T01:25:07;2.40;97.30
1075;DHT22;526;51.392;12.448;2023-03-15T01:27:33;2.40;97.30
1075;DHT22;526;51.392;12.448;2023-03-15T01:29:59;2.40;97.30
1075;DHT22;526;51.392;12.448;2023-03-15T01:32:25;2.30;97.30
1075;DHT22;526;51.392;12.448;2023-03-15T01:34:51;2.30;97.30
1075;DHT22;526;51.392;12.448;2023-03-15T01:37:16;2.30;97.30
1075;DHT22;526;51.392;12.448;2023-03-15T01:39:42;2.30;97.30
1075;DHT22;526;51.392;12.448;2023-03-15T01:42:08;2.30;97.30
1075;DHT22;526;51.392;12.448;2023-03-15T01:44:56;2.20;97.30
1075;DHT22;526;51.392;12.448;2023-03-15T01:47:22;2.20;97.30
1075;DHT22;526;51.392;12.448;2023-03-15T01:50:00;2.20;97.30
1075;DHT22;526;51.392;12.448;2023-03-15T01:52:33;2.20;97.30
1075;DHT22;526;51.392;12.448;2023-03-15T01:55:19;2.20;97.30
1075;DHT22;526;51.392;12.448;2023-03-15T01:57:54;2.20;97.30
1075;DHT22;526;51.392;12.448;2023-03-15T02:00:21;2.20;97.30
1075;DHT22;526;51.392;12.448;2023-03-15T02:02:51;2.20;97.30
1075;DHT22;526;51.392;12.448;2023-03-15T02:05:26;2.20;97.30
1075;DHT22;526;51.392;12.448;2023-03-15T02:07:53;2.10;97.30
1075;DHT22;526;51.392;12.448;2023-03-15T02:10:28;2.10;97.30
1075;DHT22;526;51.392;12.448;2023-03-15T02:12:55;2.10;97.30
1075;DHT22;526;51.392;12.448;2023-03-15T02:15:22;2.10;97.30
1075;DHT22;526;51.392;12.448;2023-03-15T02:17:48;2.00;97.30
1075;DHT22;526;51.392;12.448;2023-03-15T02:20:33;2.00;97.30
1075;DHT22;526;51.392;12.448;2023-03-15T02:23:05;2.00;97.30
1075;DHT22;526;51.392;12.448;2023-03-15T02:25:56;2.00;97.30
1075;DHT22;526;51.392;12.448;2023-03-15T02:28:25;2.00;97.30
1075;DHT22;526;51.392;12.448;2023-03-15T02:30:51;2.00;97.30
1075;DHT22;526;51.392;12.448;2023-03-15T02:33:25;1.90;97.30
1075;DHT22;526;51.392;12.448;2023-03-15T02:35:52;1.90;97.30
1075;DHT22;526;51.392;12.448;2023-03-15T02:38:18;1.90;97.30
1075;DHT22;526;51.392;12.448;2023-03-15T02:40:45;1.90;97.30
1075;DHT22;526;51.392;12.448;2023-03-15T02:43:15;1.90;97.30
1075;DHT22;526;51.392;12.448;2023-03-15T02:45:41;1.90;97.30
1075;DHT22;526;51.392;12.448;2023-03-15T02:48:07;1.90;97.30
1075;DHT22;526;51.392;12.448;2023-03-15T02:50:33;1.90;97.30
1075;DHT22;526;51.392;12.448;2023-03-15T02:52:59;1.80;97.30
1075;DHT22;526;51.392;12.448;2023-03-15T02:55:27;1.80;97.30
1075;DHT22;526;51.392;12.448;2023-03-15T02:57:53;1.80;97.30
1075;DHT22;526;51.392;12.448;2023-03-15T03:00:18;1.80;97.30
1075;DHT22;526;51.392;12.448;2023-03-15T03:02:46;1.70;97.30
1075;DHT22;526;51.392;12.448;2023-03-15T03:05:13;1.70;97.30
1075;DHT22;526;51.392;12.448;2023-03-15T03:07:40;1.70;97.30
1075;DHT22;526;51.392;12.448;2023-03-15T03:10:14;1.60;97.30
1075;DHT22;526;51.392;12.448;2023-03-15T03:12:40;1.60;97.30
1075;DHT22;526;51.392;12.448;2023-03-15T03:15:06;1.60;97.30
1075;DHT22;526;51.392;12.448;2023-03-15T03:17:33;1.60;97.30
1075;DHT22;526;51.392;12.448;2023-03-15T03:20:08;1.60;97.30
1075;DHT22;526;51.392;12.448;2023-03-15T03:22:35;1.50;97.30
1075;DHT22;526;51.392;12.448;2023-03-15T03:25:01;1.50;97.30
1075;DHT22;526;51.392;12.448;2023-03-15T03:27:27;1.50;97.30
1075;DHT22;526;51.392;12.448;2023-03-15T03:29:53;1.50;97.30
1075;DHT22;526;51.392;12.448;2023-03-15T03:32:19;1.50;97.30
1075;DHT22;526;51.392;12.448;2023-03-15T03:34:44;1.40;97.30
1075;DHT22;526;51.392;12.448;2023-03-15T03:37:18;1.40;97.30
1075;DHT22;526;51.392;12.448;2023-03-15T03:39:44;1.40;97.30
1075;DHT22;526;51.392;12.448;2023-03-15T03:42:10;1.40;97.30
1075;DHT22;526;51.392;12.448;2023-03-15T03:44:35;1.30;97.30
1075;DHT22;526;51.392;12.448;2023-03-15T03:47:01;1.30;97.30
1075;DHT22;526;51.392;12.448;2023-03-15T03:49:27;1.30;97.30
1075;DHT22;526;51.392;12.448;2023-03-15T03:51:52;1.30;97.30
1075;DHT22;526;51.392;12.448;2023-03-15T03:54:18;1.30;97.30
1075;DHT22;526;51.392;12.448;2023-03-15T03:56:46;1.30;97.30
1075;DHT22;526;51.392;12.448;2023-03-15T03:59:11;1.20;97.30
1075;DHT22;526;51.392;12.448;2023-03-15T04:01:37;1.20;97.30
1075;DHT22;526;51.392;12.448;2023-03-15T04:04:02;1.20;97.30
1075;DHT22;526;51.392;12.448;2023-03-15T04:06:28;1.20;97.30
1075;DHT22;526;51.392;12.448;2023-03-15T04:08:53;1.20;97.30
1075;DHT22;526;51.392;12.448;2023-03-15T04:11:19;1.20;97.30
1075;DHT22;526;51.392;12.448;2023-03-15T04:13:44;1.20;97.30
1075;DHT22;526;51.392;12.448;2023-03-15T04:16:10;1.20;97.30
1075;DHT22;526;51.392;12.448;2023-03-15T04:18:36;1.20;97.30
1075;DHT22;526;51.392;12.448;2023-03-15T04:21:04;1.20;97.30
1075;DHT22;526;51.392;12.448;2023-03-15T04:23:35;1.20;97.30
1075;DHT22;526;51.392;12.448;2023-03-15T04:26:01;1.20;97.30
1075;DHT22;526;51.392;12.448;2023-03-15T04:28:27;1.20;97.30
1075;DHT22;526;51.392;12.448;2023-03-15T04:30:54;1.20;97.30
1075;DHT22;526;51.392;12.448;2023-03-15T04:33:23;1.20;97.30
1075;DHT22;526;51.392;12.448;2023-03-15T04:35:48;1.20;97.30
1075;DHT22;526;51.392;12.448;2023-03-15T04:38:17;1.20;97.30
1075;DHT22;526;51.392;12.448;2023-03-15T04:40:42;1.20;97.30
1075;DHT22;526;51.392;12.448;2023-03-15T04:43:07;1.20;97.30
1075;DHT22;526;51.392;12.448;2023-03-15T04:45:33;1.10;97.30
1075;DHT22;526;51.392;12.448;2023-03-15T04:47:59;1.10;97.30
1075;DHT22;526;51.392;12.448;2023-03-15T04:50:26;1.10;97.30
1075;DHT22;526;51.392;12.448;2023-03-15T04:52:51;1.10;97.30
1075;DHT22;526;51.392;12.448;2023-03-15T04:55:17;1.10;97.30
1075;DHT22;526;51.392;12.448;2023-03-15T04:57:42;1.10;97.30
1075;DHT22;526;51.392;12.448;2023-03-15T05:00:09;1.10;97.30
1075;DHT22;526;51.392;12.448;2023-03-15T05:02:36;1.10;97.30
1075;DHT22;526;51.392;12.448;2023-03-15T05:05:05;1.10;97.30
1075;DHT22;526;51.392;12.448;2023-03-15T05:07:32;1.10;97.30
1075;DHT22;526;51.392;12.448;2023-03-15T05:09:58;1.10;97.30
1075;DHT22;526;51.392;12.448;2023-03-15T05:12:23;1.10;97.30
1075;DHT22;526;51.392;12.448;2023-03-15T05:14:49;1.10;97.30
1075;DHT22;526;51.392;12.448;2023-03-15T05:17:14;1.10;97.30
1075;DHT22;526;51.392;12.448;2023-03-15T05:19:40;1.20;97.30
1075;DHT22;526;51.392;12.448;2023-03-15T05:22:06;1.20;97.30
1075;DHT22;526;51.392;12.448;2023-03-15T05:24:32;1.20;97.30
1075;DHT22;526;51.392;12.448;2023-03-15T05:26:57;1.20;97.30
1075;DHT22;526;51.392;12.448;2023-03-15T05:29:23;1.30;97.30
1075;DHT22;526;51.392;12.448;2023-03-15T05:31:49;1.30;97.30
1075;DHT22;526;51.392;12.448;2023-03-15T05:34:17;1.30;97.30
1075;DHT22;526;51.392;12.448;2023-03-15T05:36:42;1.40;97.30
1075;DHT22;526;51.392;12.448;2023-03-15T05:39:08;1.40;97.30
1075;DHT22;526;51.392;12.448;2023-03-15T05:41:34;1.40;97.30
1075;DHT22;526;51.392;12.448;2023-03-15T05:43:59;1.50;97.30
1075;DHT22;526;51.392;12.448;2023-03-15T05:46:25;1.50;97.30
1075;DHT22;526;51.392;12.448;2023-03-15T05:48:50;1.60;97.30
1075;DHT22;526;51.392;12.448;2023-03-15T05:51:18;1.60;97.30
1075;DHT22;526;51.392;12.448;2023-03-15T05:53:43;1.60;97.30
1075;DHT22;526;51.392;12.448;2023-03-15T05:56:09;1.70;97.30
1075;DHT22;526;51.392;12.448;2023-03-15T05:58:34;1.70;97.30
1075;DHT22;526;51.392;12.448;2023-03-15T06:01:01;1.80;97.30
1075;DHT22;526;51.392;12.448;2023-03-15T06:03:28;1.80;97.30
1075;DHT22;526;51.392;12.448;2023-03-15T06:05:54;1.90;97.30
1075;DHT22;526;51.392;12.448;2023-03-15T06:08:19;1.90;97.30
1075;DHT22;526;51.392;12.448;2023-03-15T06:10:45;2.00;97.30
1075;DHT22;526;51.392;12.448;2023-03-15T06:13:10;2.00;97.30
1075;DHT22;526;51.392;12.448;2023-03-15T06:15:36;2.00;97.30
1075;DHT22;526;51.392;12.448;2023-03-15T06:18:01;2.10;97.30
1075;DHT22;526;51.392;12.448;2023-03-15T06:20:27;2.10;97.30
1075;DHT22;526;51.392;12.448;2023-03-15T06:22:52;2.20;97.30
1075;DHT22;526;51.392;12.448;2023-03-15T06:25:18;2.20;97.30
1075;DHT22;526;51.392;12.448;2023-03-15T06:27:44;2.30;97.30
1075;DHT22;526;51.392;12.448;2023-03-15T06:30:09;2.20;97.30
1075;DHT22;526;51.392;12.448;2023-03-15T06:32:35;2.20;97.30
1075;DHT22;526;51.392;12.448;2023-03-15T06:35:01;2.10;97.30
1075;DHT22;526;51.392;12.448;2023-03-15T06:37:26;2.00;97.30
1075;DHT22;526;51.392;12.448;2023-03-15T06:39:52;1.80;97.30
1075;DHT22;526;51.392;12.448;2023-03-15T06:42:18;1.80;97.30
1075;DHT22;526;51.392;12.448;2023-03-15T06:44:44;1.70;97.30
1075;DHT22;526;51.392;12.448;2023-03-15T06:47:10;1.70;97.30
1075;DHT22;526;51.392;12.448;2023-03-15T06:49:36;1.60;97.30
1075;DHT22;526;51.392;12.448;2023-03-15T06:52:02;1.60;97.30
1075;DHT22;526;51.392;12.448;2023-03-15T06:54:29;1.60;97.30
1075;DHT22;526;51.392;12.448;2023-03-15T06:56:54;1.70;97.30
1075;DHT22;526;51.392;12.448;2023-03-15T06:59:20;1.70;97.30
1075;DHT22;526;51.392;12.448;2023-03-15T07:01:45;1.70;97.30
1075;DHT22;526;51.392;12.448;2023-03-15T07:04:11;1.80;97.30
1075;DHT22;526;51.392;12.448;2023-03-15T07:06:36;1.80;97.30
1075;DHT22;526;51.392;12.448;2023-03-15T07:09:03;1.90;97.30
1075;DHT22;526;51.392;12.448;2023-03-15T07:11:29;1.90;97.30
1075;DHT22;526;51.392;12.448;2023-03-15T07:13:55;1.90;97.30
1075;DHT22;526;51.392;12.448;2023-03-15T07:16:20;2.00;97.30
1075;DHT22;526;51.392;12.448;2023-03-15T07:18:46;2.00;97.30
1075;DHT22;526;51.392;12.448;2023-03-15T07:21:11;2.00;97.30
1075;DHT22;526;51.392;12.448;2023-03-15T07:23:37;2.00;97.30
1075;DHT22;526;51.392;12.448;2023-03-15T07:26:03;2.00;97.30
1075;DHT22;526;51.392;12.448;2023-03-15T07:28:28;2.00;97.30
1075;DHT22;526;51.392;12.448;2023-03-15T07:30:59;1.80;97.30
1075;DHT22;526;51.392;12.448;2023-03-15T07:33:27;1.70;97.30
1075;DHT22;526;51.392;12.448;2023-03-15T07:35:53;1.60;97.30
1075;DHT22;526;51.392;12.448;2023-03-15T07:38:24;1.60;97.30
1075;DHT22;526;51.392;12.448;2023-03-15T07:40:50;1.50;97.30
1075;DHT22;526;51.392;12.448;2023-03-15T07:43:16;1.50;97.30
1075;DHT22;526;51.392;12.448;2023-03-15T07:45:42;1.50;97.30
1075;DHT22;526;51.392;12.448;2023-03-15T07:48:08;1.50;97.30
1075;DHT22;526;51.392;12.448;2023-03-15T07:50:33;1.50;97.30
1075;DHT22;526;51.392;12.448;2023-03-15T07:52:59;1.50;97.30
1075;DHT22;526;51.392;12.448;2023-03-15T07:55:25;1.50;97.30
1075;DHT22;526;51.392;12.448;2023-03-15T07:57:51;1.50;97.30
1075;DHT22;526;51.392;12.448;2023-03-15T08:00:17;1.40;97.30
1075;DHT22;526;51.392;12.448;2023-03-15T08:02:43;1.50;97.30
1075;DHT22;526;51.392;12.448;2023-03-15T08:05:09;1.50;97.30
1075;DHT22;526;51.392;12.448;2023-03-15T08:07:35;1.50;97.30
1075;DHT22;526;51.392;12.448;2023-03-15T08:12:28;1.50;97.30
1075;DHT22;526;51.392;12.448;2023-03-15T08:14:55;1.50;97.30
1075;DHT22;526;51.392;12.448;2023-03-15T08:17:20;1.50;97.30
1075;DHT22;526;51.392;12.448;2023-03-15T08:19:46;1.60;97.30
1075;DHT22;526;51.392;12.448;2023-03-15T08:22:11;1.60;97.30
1075;DHT22;526;51.392;12.448;2023-03-15T08:24:37;1.60;97.30
1075;DHT22;526;51.392;12.448;2023-03-15T08:27:03;1.80;97.30
1075;DHT22;526;51.392;12.448;2023-03-15T08:29:29;1.90;97.30
1075;DHT22;526;51.392;12.448;2023-03-15T08:31:55;2.10;97.30
1075;DHT22;526;51.392;12.448;2023-03-15T08:34:21;2.40;97.30
1075;DHT22;526;51.392;12.448;2023-03-15T08:36:47;2.50;97.30
1075;DHT22;526;51.392;12.448;2023-03-15T08:39:13;2.60;97.30
1075;DHT22;526;51.392;12.448;2023-03-15T08:41:39;2.70;97.30
1075;DHT22;526;51.392;12.448;2023-03-15T08:44:05;2.90;97.30
1075;DHT22;526;51.392;12.448;2023-03-15T08:46:31;3.00;97.30
1075;DHT22;526;51.392;12.448;2023-03-15T08:48:57;3.00;97.30
1075;DHT22;526;51.392;12.448;2023-03-15T08:51:23;3.00;97.30
1075;DHT22;526;51.392;12.448;2023-03-15T08:53:49;3.00;97.30
1075;DHT22;526;51.392;12.448;2023-03-15T08:56:16;3.10;97.30
1075;DHT22;526;51.392;12.448;2023-03-15T08:58:41;3.10;97.30
1075;DHT22;526;51.392;12.448;2023-03-15T09:01:09;3.20;97.30
1075;DHT22;526;51.392;12.448;2023-03-15T09:03:35;3.30;97.30
1075;DHT22;526;51.392;12.448;2023-03-15T09:06:00;3.40;97.30
1075;DHT22;526;51.392;12.448;2023-03-15T09:08:26;3.60;97.30
1075;DHT22;526;51.392;12.448;2023-03-15T09:10:55;3.80;97.30
1075;DHT22;526;51.392;12.448;2023-03-15T09:13:21;3.90;97.30
1075;DHT22;526;51.392;12.448;2023-03-15T09:15:51;4.00;97.30
1075;DHT22;526;51.392;12.448;2023-03-15T09:18:17;4.10;97.30
1075;DHT22;526;51.392;12.448;2023-03-15T09:20:43;4.20;97.30
1075;DHT22;526;51.392;12.448;2023-03-15T09:23:09;4.40;97.30
1075;DHT22;526;51.392;12.448;2023-03-15T09:25:34;4.50;97.30
1075;DHT22;526;51.392;12.448;2023-03-15T09:28:04;4.60;97.30
1075;DHT22;526;51.392;12.448;2023-03-15T09:30:30;4.50;97.30
1075;DHT22;526;51.392;12.448;2023-03-15T09:32:55;4.60;97.30
1075;DHT22;526;51.392;12.448;2023-03-15T09:35:21;4.70;97.30
1075;DHT22;526;51.392;12.448;2023-03-15T09:37:48;4.60;97.30
1075;DHT22;526;51.392;12.448;2023-03-15T09:40:37;4.70;97.30
1075;DHT22;526;51.392;12.448;2023-03-15T09:43:28;4.70;97.30
1075;DHT22;526;51.392;12.448;2023-03-15T09:49:32;4.80;97.30
1075;DHT22;526;51.392;12.448;2023-03-15T09:52:36;5.00;97.30
1075;DHT22;526;51.392;12.448;2023-03-15T09:55:10;5.10;97.30
1075;DHT22;526;51.392;12.448;2023-03-15T09:58:20;5.10;97.30
1075;DHT22;526;51.392;12.448;2023-03-15T10:00:47;5.20;97.30
1075;DHT22;526;51.392;12.448;2023-03-15T10:03:28;5.40;97.30
1075;DHT22;526;51.392;12.448;2023-03-15T10:05:59;5.60;97.30
1075;DHT22;526;51.392;12.448;2023-03-15T10:08:25;5.70;97.30
1075;DHT22;526;51.392;12.448;2023-03-15T10:11:13;5.80;97.30
1075;DHT22;526;51.392;12.448;2023-03-15T10:16:38;5.40;97.30
1075;DHT22;526;51.392;12.448;2023-03-15T10:22:02;5.40;96.90
1075;DHT22;526;51.392;12.448;2023-03-15T10:27:22;5.40;96.10
1075;DHT22;526;51.392;12.448;2023-03-15T10:29:54;5.40;96.10
1075;DHT22;526;51.392;12.448;2023-03-15T10:32:27;5.60;96.50
1075;DHT22;526;51.392;12.448;2023-03-15T10:34:56;5.80;95.10
1075;DHT22;526;51.392;12.448;2023-03-15T10:37:24;6.00;95.20
1075;DHT22;526;51.392;12.448;2023-03-15T10:39:53;6.30;94.80
1075;DHT22;526;51.392;12.448;2023-03-15T10:42:31;6.50;93.70
1075;DHT22;526;51.392;12.448;2023-03-15T10:44:58;6.40;93.80
1075;DHT22;526;51.392;12.448;2023-03-15T10:47:25;6.30;92.80
1075;DHT22;526;51.392;12.448;2023-03-15T10:49:58;6.00;93.30
1075;DHT22;526;51.392;12.448;2023-03-15T10:52:44;5.80;93.10
1075;DHT22;526;51.392;12.448;2023-03-15T10:57:40;5.80;93.80
1075;DHT22;526;51.392;12.448;2023-03-15T11:02:49;5.70;93.40
1075;DHT22;526;51.392;12.448;2023-03-15T11:05:16;5.80;94.10
1075;DHT22;526;51.392;12.448;2023-03-15T11:07:56;5.90;94.90
1075;DHT22;526;51.392;12.448;2023-03-15T11:10:25;6.00;94.40
1075;DHT22;526;51.392;12.448;2023-03-15T11:13:12;6.10;94.30
1075;DHT22;526;51.392;12.448;2023-03-15T11:15:39;6.00;93.90
1075;DHT22;526;51.392;12.448;2023-03-15T11:18:23;6.10;94.50
1075;DHT22;526;51.392;12.448;2023-03-15T11:20:50;6.00;94.30
1075;DHT22;526;51.392;12.448;2023-03-15T11:23:27;5.90;94.20
1075;DHT22;526;51.392;12.448;2023-03-15T11:25:54;5.90;94.20
1075;DHT22;526;51.392;12.448;2023-03-15T11:28:25;5.90;94.70
1075;DHT22;526;51.392;12.448;2023-03-15T11:30:52;5.90;94.00
1075;DHT22;526;51.392;12.448;2023-03-15T11:33:32;5.90;94.40
1075;DHT22;526;51.392;12.448;2023-03-15T11:36:02;6.00;94.80
1075;DHT22;526;51.392;12.448;2023-03-15T11:38:32;6.10;93.70
1075;DHT22;526;51.392;12.448;2023-03-15T11:41:04;6.40;93.30
1075;DHT22;526;51.392;12.448;2023-03-15T11:44:04;6.30;90.30
1075;DHT22;526;51.392;12.448;2023-03-15T11:46:46;6.40;89.30
1075;DHT22;526;51.392;12.448;2023-03-15T11:49:36;6.50;89.30
1075;DHT22;526;51.392;12.448;2023-03-15T11:52:03;6.70;90.20
1075;DHT22;526;51.392;12.448;2023-03-15T11:54:30;6.80;89.90
1075;DHT22;526;51.392;12.448;2023-03-15T11:59:55;6.90;87.40
1075;DHT22;526;51.392;12.448;2023-03-15T12:04:48;7.30;85.40
1075;DHT22;526;51.392;12.448;2023-03-15T12:25:29;8.10;81.50
1075;DHT22;526;51.392;12.448;2023-03-15T12:27:57;8.20;81.20
1075;DHT22;526;51.392;12.448;2023-03-15T12:30:30;8.50;83.50
1075;DHT22;526;51.392;12.448;2023-03-15T12:32:57;8.70;81.40
1075;DHT22;526;51.392;12.448;2023-03-15T12:35:28;8.30;81.60
1075;DHT22;526;51.392;12.448;2023-03-15T12:37:54;7.90;81.50
1075;DHT22;526;51.392;12.448;2023-03-15T12:40:38;7.50;82.00
1075;DHT22;526;51.392;12.448;2023-03-15T12:43:04;7.30;84.00
1075;DHT22;526;51.392;12.448;2023-03-15T12:45:38;7.00;85.00
1075;DHT22;526;51.392;12.448;2023-03-15T12:50:49;6.90;87.60
1075;DHT22;526;51.392;12.448;2023-03-15T12:58:57;7.70;86.60
1075;DHT22;526;51.392;12.448;2023-03-15T13:01:24;7.70;85.30
1075;DHT22;526;51.392;12.448;2023-03-15T13:03:55;7.40;85.20
1075;DHT22;526;51.392;12.448;2023-03-15T13:09:34;7.30;85.80
1075;DHT22;526;51.392;12.448;2023-03-15T13:12:25;7.50;85.10
1075;DHT22;526;51.392;12.448;2023-03-15T13:15:03;7.40;85.70
1075;DHT22;526;51.392;12.448;2023-03-15T13:17:54;7.60;85.70
1075;DHT22;526;51.392;12.448;2023-03-15T13:20:37;7.80;84.90
1075;DHT22;526;51.392;12.448;2023-03-15T13:23:17;8.10;84.60
1075;DHT22;526;51.392;12.448;2023-03-15T13:25:57;8.30;84.70
1075;DHT22;526;51.392;12.448;2023-03-15T13:28:35;8.50;84.50
1075;DHT22;526;51.392;12.448;2023-03-15T13:31:19;8.50;83.70
1075;DHT22;526;51.392;12.448;2023-03-15T13:33:50;8.90;86.60
1075;DHT22;526;51.392;12.448;2023-03-15T13:36:26;9.30;84.10
1075;DHT22;526;51.392;12.448;2023-03-15T13:38:54;9.60;83.20
1075;DHT22;526;51.392;12.448;2023-03-15T13:41:29;9.70;82.50
1075;DHT22;526;51.392;12.448;2023-03-15T13:43:57;9.30;81.40
1075;DHT22;526;51.392;12.448;2023-03-15T13:46:26;8.70;81.50
1075;DHT22;526;51.392;12.448;2023-03-15T13:48:54;8.40;83.40
1075;DHT22;526;51.392;12.448;2023-03-15T13:51:26;8.60;84.70
1075;DHT22;526;51.392;12.448;2023-03-15T13:54:03;8.90;84.40
1075;DHT22;526;51.392;12.448;2023-03-15T13:56:32;9.20;84.50
1075;DHT22;526;51.392;12.448;2023-03-15T13:58:59;9.60;84.20
1075;DHT22;526;51.392;12.448;2023-03-15T14:01:27;9.80;80.40
1075;DHT22;526;51.392;12.448;2023-03-15T14:03:58;10.00;79.90
1075;DHT22;526;51.392;12.448;2023-03-15T14:06:26;10.00;80.10
1075;DHT22;526;51.392;12.448;2023-03-15T14:08:58;9.90;79.70
1075;DHT22;526;51.392;12.448;2023-03-15T14:13:59;9.00;80.00
1075;DHT22;526;51.392;12.448;2023-03-15T14:16:42;8.70;83.00
1075;DHT22;526;51.392;12.448;2023-03-15T14:21:44;7.80;89.40
1075;DHT22;526;51.392;12.448;2023-03-15T14:24:15;7.50;90.90
1075;DHT22;526;51.392;12.448;2023-03-15T14:26:41;7.20;91.50
1075;DHT22;526;51.392;12.448;2023-03-15T14:29:15;7.10;91.90
1075;DHT22;526;51.392;12.448;2023-03-15T14:31:47;7.10;91.80
1075;DHT22;526;51.392;12.448;2023-03-15T14:34:29;7.20;90.80
1075;DHT22;526;51.392;12.448;2023-03-15T14:36:58;7.20;90.20
1075;DHT22;526;51.392;12.448;2023-03-15T14:41:58;8.20;88.90
1075;DHT22;526;51.392;12.448;2023-03-15T14:44:24;8.50;87.20
1075;DHT22;526;51.392;12.448;2023-03-15T14:46:49;8.90;87.10
1075;DHT22;526;51.392;12.448;2023-03-15T14:49:22;9.30;85.40
1075;DHT22;526;51.392;12.448;2023-03-15T14:51:52;9.50;83.50
1075;DHT22;526;51.392;12.448;2023-03-15T14:54:19;9.60;82.50
1075;DHT22;526;51.392;12.448;2023-03-15T14:56:45;9.70;83.70
1075;DHT22;526;51.392;12.448;2023-03-15T14:59:11;9.90;82.30
1075;DHT22;526;51.392;12.448;2023-03-15T15:01:39;10.00;81.50
1075;DHT22;526;51.392;12.448;2023-03-15T15:04:06;10.30;80.30
1075;DHT22;526;51.392;12.448;2023-03-15T15:06:34;10.40;79.70
1075;DHT22;526;51.392;12.448;2023-03-15T15:09:03;10.40;78.30
1075;DHT22;526;51.392;12.448;2023-03-15T15:11:30;10.40;79.40
1075;DHT22;526;51.392;12.448;2023-03-15T15:13:56;10.50;79.70
1075;DHT22;526;51.392;12.448;2023-03-15T15:16:22;10.40;79.70
1075;DHT22;526;51.392;12.448;2023-03-15T15:18:48;10.50;80.00
1075;DHT22;526;51.392;12.448;2023-03-15T15:21:24;10.30;82.90
1075;DHT22;526;51.392;12.448;2023-03-15T15:23:51;9.90;85.90
1075;DHT22;526;51.392;12.448;2023-03-15T15:26:19;9.20;86.30
1075;DHT22;526;51.392;12.448;2023-03-15T15:28:45;8.50;89.00
1075;DHT22;526;51.392;12.448;2023-03-15T15:31:16;8.10;90.90
1075;DHT22;526;51.392;12.448;2023-03-15T15:33:42;7.70;92.40
1075;DHT22;526;51.392;12.448;2023-03-15T15:36:15;7.30;93.40
1075;DHT22;526;51.392;12.448;2023-03-15T15:38:41;7.60;94.10
1075;DHT22;526;51.392;12.448;2023-03-15T15:41:15;8.10;93.30
1075;DHT22;526;51.392;12.448;2023-03-15T15:43:43;8.70;91.60
1075;DHT22;526;51.392;12.448;2023-03-15T15:46:10;9.20;90.60
1075;DHT22;526;51.392;12.448;2023-03-15T15:48:36;9.70;89.40
1075;DHT22;526;51.392;12.448;2023-03-15T15:51:02;10.00;87.90
1075;DHT22;526;51.392;12.448;2023-03-15T15:53:30;10.20;86.70
1075;DHT22;526;51.392;12.448;2023-03-15T15:55:56;10.50;86.60
1075;DHT22;526;51.392;12.448;2023-03-15T15:58:22;10.80;85.50
1075;DHT22;526;51.392;12.448;2023-03-15T16:00:47;10.80;85.50
1075;DHT22;526;51.392;12.448;2023-03-15T16:03:13;10.80;85.80
1075;DHT22;526;51.392;12.448;2023-03-15T16:05:42;11.00;85.50
1075;DHT22;526;51.392;12.448;2023-03-15T16:08:20;11.00;85.20
1075;DHT22;526;51.392;12.448;2023-03-15T16:10:46;11.00;85.10
1075;DHT22;526;51.392;12.448;2023-03-15T16:13:12;11.20;85.00
1075;DHT22;526;51.392;12.448;2023-03-15T16:15:37;11.30;85.20
1075;DHT22;526;51.392;12.448;2023-03-15T16:18:08;11.50;84.20
1075;DHT22;526;51.392;12.448;2023-03-15T16:20:35;11.40;83.50
1075;DHT22;526;51.392;12.448;2023-03-15T16:23:00;10.90;83.60
1075;DHT22;526;51.392;12.448;2023-03-15T16:25:29;10.10;85.20
1075;DHT22;526;51.392;12.448;2023-03-15T16:27:59;9.50;86.60
1075;DHT22;526;51.392;12.448;2023-03-15T16:30:27;9.00;87.70
1075;DHT22;526;51.392;12.448;2023-03-15T16:32:55;8.50;89.20
1075;DHT22;526;51.392;12.448;2023-03-15T16:35:23;8.20;90.40
1075;DHT22;526;51.392;12.448;2023-03-15T16:37:51;7.90;91.40
1075;DHT22;526;51.392;12.448;2023-03-15T16:40:28;7.70;92.30
1075;DHT22;526;51.392;12.448;2023-03-15T16:42:54;7.50;92.80
1075;DHT22;526;51.392;12.448;2023-03-15T16:45:20;7.30;93.10
1075;DHT22;526;51.392;12.448;2023-03-15T16:47:46;7.20;93.50
1075;DHT22;526;51.392;12.448;2023-03-15T16:50:13;7.00;93.80
1075;DHT22;526;51.392;12.448;2023-03-15T16:52:39;6.90;94.20
1075;DHT22;526;51.392;12.448;2023-03-15T16:55:06;6.80;94.60
1075;DHT22;526;51.392;12.448;2023-03-15T16:57:32;6.60;94.90
1075;DHT22;526;51.392;12.448;2023-03-15T16:59:58;6.50;95.20
1075;DHT22;526;51.392;12.448;2023-03-15T17:02:25;6.50;95.70
1075;DHT22;526;51.392;12.448;2023-03-15T17:04:51;6.40;95.70
1075;DHT22;526;51.392;12.448;2023-03-15T17:07:20;6.40;95.70
1075;DHT22;526;51.392;12.448;2023-03-15T17:09:47;6.30;96.20
1075;DHT22;526;51.392;12.448;2023-03-15T17:12:24;6.10;96.30
1075;DHT22;526;51.392;12.448;2023-03-15T17:14:51;5.90;95.80
1075;DHT22;526;51.392;12.448;2023-03-15T17:17:18;5.70;96.40
1075;DHT22;526;51.392;12.448;2023-03-15T17:19:43;5.50;96.30
1075;DHT22;526;51.392;12.448;2023-03-15T17:22:10;5.40;96.90
1075;DHT22;526;51.392;12.448;2023-03-15T17:24:36;5.30;97.30
1075;DHT22;526;51.392;12.448;2023-03-15T17:27:02;5.20;97.30
1075;DHT22;526;51.392;12.448;2023-03-15T17:29:28;5.20;96.90